Time;durP1;ratioP1;P1;durP2;ratioP2;P2;SDS_P1;SDS_P2;PMS_P1;PMS_P2;Temp;Humidity;BMP_temperature;BMP_pressure;BME280_temperature;BME280_humidity;BME280_pressure;Samples;Min_cycle;Max_cycle;Signal;HPM_P1;HPM_P2
2022/04/07 00:01:30;;;;;;;10.23;9.33;;;;;;;;;;5006925;28;20433;-84
2022/04/07 00:03:56;;;;;;;10.80;9.45;;;;;;;;;;5003469;28;20467;-84
2022/04/07 00:06:23;;;;;;;10.55;9.40;;;;;;;;;;5005301;28;20465;-84
2022/04/07 00:08:49;;;;;;;10.43;9.32;;;;;;;;;;5004337;28;20433;-84
2022/04/07 00:11:15;;;;;;;9.90;8.90;;;;;;;;;;5005990;28;20434;-84
2022/04/07 00:13:42;;;;;;;9.73;8.38;;;;;;;;;;5004926;28;20426;-83
2022/04/07 00:16:08;;;;;;;9.35;8.18;;;;;;;;;;5005293;28;20981;-84
2022/04/07 00:18:36;;;;;;;9.13;8.23;;;;;;;;;;5003620;28;20839;-84
2022/04/07 00:21:06;;;;;;;8.43;7.57;;;;;;;;;;5005008;28;20438;-84
2022/04/07 00:23:33;;;;;;;8.80;7.80;;;;;;;;;;5004800;28;20459;-84
2022/04/07 00:25:59;;;;;;;8.80;8.00;;;;;;;;;;5006139;28;20435;-84
2022/04/07 00:28:25;;;;;;;9.32;7.78;;;;;;;;;;5004361;28;20487;-84
2022/04/07 00:30:51;;;;;;;9.45;7.38;;;;;;;;;;5005529;28;20444;-84
2022/04/07 00:33:18;;;;;;;8.40;7.20;;;;;;;;;;5005182;28;20419;-84
2022/04/07 00:35:45;;;;;;;8.07;7.15;;;;;;;;;;5004937;28;20981;-81
2022/04/07 00:38:11;;;;;;;10.47;6.90;;;;;;;;;;5002600;28;20481;-83
2022/04/07 00:40:38;;;;;;;9.40;7.18;;;;;;;;;;5006688;28;21199;-85
2022/04/07 00:43:04;;;;;;;8.05;7.25;;;;;;;;;;5004120;28;20838;-84
2022/04/07 00:45:31;;;;;;;7.20;6.50;;;;;;;;;;5002310;28;20747;-85
2022/04/07 00:47:58;;;;;;;8.13;6.50;;;;;;;;;;5004725;28;20480;-84
2022/04/07 00:50:24;;;;;;;8.20;6.38;;;;;;;;;;5004785;28;20460;-84
2022/04/07 00:52:53;;;;;;;8.05;6.97;;;;;;;;;;5004179;28;20784;-83
2022/04/07 00:55:19;;;;;;;7.00;6.30;;;;;;;;;;5005208;28;20439;-84
2022/04/07 00:57:46;;;;;;;7.80;7.00;;;;;;;;;;5004326;28;20586;-84
2022/04/07 01:00:13;;;;;;;8.05;6.90;;;;;;;;;;5001535;28;20498;-84
2022/04/07 01:02:40;;;;;;;7.90;7.10;;;;;;;;;;5002439;28;20432;-84
2022/04/07 01:05:07;;;;;;;8.13;7.03;;;;;;;;;;5005999;28;20495;-84
2022/04/07 01:07:37;;;;;;;8.55;7.18;;;;;;;;;;5002825;28;20418;-84
2022/04/07 01:10:05;;;;;;;8.13;7.10;;;;;;;;;;4999734;28;20881;-84
2022/04/07 01:12:31;;;;;;;8.63;7.47;;;;;;;;;;4999662;28;20413;-84
2022/04/07 01:14:59;;;;;;;9.07;7.40;;;;;;;;;;5000482;28;20442;-84
2022/04/07 01:17:25;;;;;;;8.37;7.57;;;;;;;;;;5001042;28;20459;-84
2022/04/07 01:19:51;;;;;;;9.05;7.70;;;;;;;;;;4998567;28;20441;-83
2022/04/07 01:22:18;;;;;;;9.10;7.67;;;;;;;;;;5000016;28;20436;-84
2022/04/07 01:24:47;;;;;;;7.90;7.10;;;;;;;;;;5000042;28;22332;-83
2022/04/07 01:27:14;;;;;;;8.30;6.95;;;;;;;;;;5000525;28;20437;-84
2022/04/07 01:29:41;;;;;;;8.30;7.20;;;;;;;;;;4998037;28;20455;-84
2022/04/07 01:32:08;;;;;;;7.22;6.53;;;;;;;;;;5001114;28;20934;-84
2022/04/07 01:34:35;;;;;;;9.70;7.38;;;;;;;;;;4998704;28;20922;-84
2022/04/07 01:37:01;;;;;;;7.88;7.18;;;;;;;;;;5000781;28;20438;-85
2022/04/07 01:39:28;;;;;;;9.68;7.80;;;;;;;;;;4978820;28;20441;-84
2022/04/07 01:41:55;;;;;;;9.32;8.20;;;;;;;;;;4978434;28;20442;-84
2022/04/07 01:44:23;;;;;;;11.30;8.70;;;;;;;;;;4977047;28;20438;-84
2022/04/07 01:46:51;;;;;;;11.23;10.15;;;;;;;;;;4980209;28;20446;-84
2022/04/07 01:49:18;;;;;;;11.40;9.98;;;;;;;;;;4977296;28;20439;-84
2022/04/07 01:51:45;;;;;;;9.57;8.68;;;;;;;;;;4977321;28;20530;-82
2022/04/07 01:54:12;;;;;;;10.35;9.35;;;;;;;;;;4980546;28;21783;-83
2022/04/07 01:56:38;;;;;;;9.93;8.93;;;;;;;;;;4985212;28;20452;-84
2022/04/07 01:59:07;;;;;;;10.63;9.52;;;;;;;;;;4979971;28;20438;-84
2022/04/07 02:01:33;;;;;;;10.50;9.50;;;;;;;;;;4983543;28;20442;-84
2022/04/07 02:03:59;;;;;;;11.20;10.00;;;;;;;;;;4982508;28;20850;-84
2022/04/07 02:06:27;;;;;;;9.40;8.50;;;;;;;;;;4983313;28;20934;-83
2022/04/07 02:08:54;;;;;;;10.48;9.35;;;;;;;;;;4982279;28;20872;-84
2022/04/07 02:11:20;;;;;;;10.60;9.50;;;;;;;;;;4983931;28;20914;-84
2022/04/07 02:13:47;;;;;;;10.23;8.40;;;;;;;;;;4982944;28;20435;-83
2022/04/07 02:16:14;;;;;;;10.13;9.00;;;;;;;;;;4982611;28;20430;-84
2022/04/07 02:18:41;;;;;;;9.13;8.20;;;;;;;;;;4980861;28;20438;-84
2022/04/07 02:21:07;;;;;;;8.80;7.90;;;;;;;;;;4983812;28;20504;-84
2022/04/07 02:23:41;;;;;;;10.52;7.82;;;;;;;;;;4982532;28;20461;-83
2022/04/07 02:26:09;;;;;;;8.43;7.63;;;;;;;;;;4983933;28;20426;-84
2022/04/07 02:28:35;;;;;;;8.80;7.43;;;;;;;;;;4982820;28;20438;-84
2022/04/07 02:31:01;;;;;;;7.90;7.10;;;;;;;;;;4982381;28;20447;-84
2022/04/07 02:33:29;;;;;;;8.20;7.40;;;;;;;;;;4982017;28;20420;-84
2022/04/07 02:35:55;;;;;;;8.50;7.70;;;;;;;;;;4981757;28;20508;-84
2022/04/07 02:38:21;;;;;;;8.88;7.97;;;;;;;;;;4982091;28;20943;-84
2022/04/07 02:40:48;;;;;;;8.10;7.40;;;;;;;;;;4983026;28;20434;-83
2022/04/07 02:43:14;;;;;;;9.60;7.25;;;;;;;;;;4982033;28;20438;-84
2022/04/07 02:45:40;;;;;;;7.57;6.72;;;;;;;;;;4982741;28;20851;-84
2022/04/07 02:48:06;;;;;;;7.13;6.25;;;;;;;;;;4981421;28;20434;-83
2022/04/07 02:50:34;;;;;;;7.68;6.88;;;;;;;;;;4981390;28;20590;-84
2022/04/07 02:53:00;;;;;;;7.03;6.10;;;;;;;;;;4981860;28;20423;-84
2022/04/07 02:55:27;;;;;;;8.23;5.80;;;;;;;;;;4981289;28;20491;-84
2022/04/07 02:57:53;;;;;;;7.63;6.63;;;;;;;;;;4981981;28;20416;-84
2022/04/07 03:00:19;;;;;;;11.15;7.32;;;;;;;;;;4982987;28;20493;-84
2022/04/07 03:02:46;;;;;;;8.57;6.30;;;;;;;;;;4982996;28;20436;-83
2022/04/07 03:05:12;;;;;;;9.52;6.55;;;;;;;;;;4982195;28;20802;-84
2022/04/07 03:07:39;;;;;;;7.35;6.70;;;;;;;;;;4985297;28;20497;-84
2022/04/07 03:10:06;;;;;;;7.10;5.90;;;;;;;;;;4985628;28;20442;-84
2022/04/07 03:12:32;;;;;;;9.60;6.63;;;;;;;;;;4984532;28;21010;-84
2022/04/07 03:14:58;;;;;;;8.63;6.50;;;;;;;;;;4986489;28;20465;-84
2022/04/07 03:17:25;;;;;;;7.07;6.38;;;;;;;;;;4984817;28;21152;-84
2022/04/07 03:19:51;;;;;;;6.68;6.07;;;;;;;;;;4985067;28;20524;-82
2022/04/07 03:22:19;;;;;;;7.50;6.25;;;;;;;;;;4985132;28;20438;-84
2022/04/07 03:24:46;;;;;;;9.50;6.15;;;;;;;;;;4986334;28;20435;-83
2022/04/07 03:27:12;;;;;;;7.55;5.95;;;;;;;;;;4986545;28;20430;-84
2022/04/07 03:29:39;;;;;;;6.20;5.60;;;;;;;;;;4985384;28;20453;-84
2022/04/07 03:32:06;;;;;;;7.70;5.68;;;;;;;;;;4985399;28;20913;-83
2022/04/07 03:34:33;;;;;;;6.00;5.40;;;;;;;;;;4984805;28;21229;-84
2022/04/07 03:37:00;;;;;;;6.25;5.63;;;;;;;;;;4986973;28;20445;-84
2022/04/07 03:39:26;;;;;;;5.80;5.30;;;;;;;;;;4982298;28;20430;-83
2022/04/07 03:41:54;;;;;;;5.40;4.90;;;;;;;;;;4987104;28;20440;-83
2022/04/07 03:44:20;;;;;;;6.07;4.80;;;;;;;;;;4983435;28;20512;-84
2022/04/07 03:46:46;;;;;;;5.55;4.90;;;;;;;;;;4985786;28;20862;-83
2022/04/07 03:49:12;;;;;;;6.50;5.80;;;;;;;;;;4984965;28;20492;-84
2022/04/07 03:51:38;;;;;;;6.10;5.50;;;;;;;;;;4986394;28;20438;-84
2022/04/07 03:54:05;;;;;;;6.10;5.50;;;;;;;;;;4999846;28;20429;-84
2022/04/07 03:56:31;;;;;;;6.65;5.97;;;;;;;;;;5003787;28;20445;-83
2022/04/07 03:58:59;;;;;;;7.87;5.37;;;;;;;;;;5003336;28;20485;-84
2022/04/07 04:01:25;;;;;;;6.40;5.45;;;;;;;;;;5003871;28;20435;-84
2022/04/07 04:03:51;;;;;;;5.90;5.30;;;;;;;;;;5003662;28;20437;-84
2022/04/07 04:06:17;;;;;;;9.75;5.75;;;;;;;;;;5004038;28;20806;-84
2022/04/07 04:08:44;;;;;;;8.63;5.57;;;;;;;;;;5003609;28;21030;-81
2022/04/07 04:11:12;;;;;;;6.20;5.50;;;;;;;;;;5004324;28;20520;-84
2022/04/07 04:13:38;;;;;;;7.82;6.50;;;;;;;;;;5003424;28;20456;-84
2022/04/07 04:16:08;;;;;;;9.52;5.72;;;;;;;;;;5002614;28;20551;-83
2022/04/07 04:18:34;;;;;;;9.93;5.65;;;;;;;;;;5002208;28;20448;-85
2022/04/07 04:21:01;;;;;;;8.73;5.30;;;;;;;;;;5001343;28;20438;-82
2022/04/07 04:23:27;;;;;;;6.70;4.88;;;;;;;;;;5002835;28;20426;-84
2022/04/07 04:25:53;;;;;;;5.97;4.30;;;;;;;;;;5002609;28;20908;-84
2022/04/07 04:28:19;;;;;;;6.70;4.07;;;;;;;;;;5000382;28;20438;-84
2022/04/07 04:30:46;;;;;;;6.43;3.60;;;;;;;;;;4999891;28;20531;-83
2022/04/07 04:33:14;;;;;;;7.00;3.50;;;;;;;;;;5016817;23;20481;-79
2022/04/07 04:35:40;;;;;;;7.57;3.92;;;;;;;;;;4985456;28;20527;-79
2022/04/07 04:38:06;;;;;;;5.60;3.50;;;;;;;;;;4986172;28;20420;-79
2022/04/07 04:40:32;;;;;;;3.75;2.88;;;;;;;;;;4985553;28;20446;-79
2022/04/07 04:42:59;;;;;;;4.38;3.63;;;;;;;;;;4983068;28;20581;-80
2022/04/07 04:45:26;;;;;;;8.50;3.60;;;;;;;;;;4982853;28;20443;-80
2022/04/07 04:47:52;;;;;;;5.63;3.80;;;;;;;;;;4984136;28;21049;-79
2022/04/07 04:50:20;;;;;;;5.75;3.60;;;;;;;;;;4983967;28;20524;-80
2022/04/07 04:52:46;;;;;;;5.95;3.95;;;;;;;;;;4985060;28;20838;-80
2022/04/07 04:55:12;;;;;;;8.32;4.00;;;;;;;;;;4983689;28;20454;-79
2022/04/07 04:57:39;;;;;;;6.53;4.28;;;;;;;;;;4984068;28;20930;-80
2022/04/07 05:00:05;;;;;;;7.43;4.75;;;;;;;;;;4981421;28;20439;-79
2022/04/07 05:02:31;;;;;;;4.63;3.90;;;;;;;;;;4982680;28;20826;-78
2022/04/07 05:04:58;;;;;;;6.47;4.47;;;;;;;;;;4984358;28;20473;-78
2022/04/07 05:07:25;;;;;;;5.88;4.53;;;;;;;;;;4982515;28;20418;-79
2022/04/07 05:09:55;;;;;;;10.32;5.10;;;;;;;;;;4979925;28;20450;-79
2022/04/07 05:12:21;;;;;;;5.65;4.47;;;;;;;;;;4978201;28;20906;-80
2022/04/07 05:14:47;;;;;;;7.30;4.50;;;;;;;;;;4961429;28;20462;-80
2022/04/07 05:17:14;;;;;;;9.63;4.68;;;;;;;;;;4964768;28;20436;-80
2022/04/07 05:19:44;;;;;;;6.20;4.38;;;;;;;;;;4964012;28;20852;-79
2022/04/07 05:22:11;;;;;;;8.90;4.57;;;;;;;;;;4964130;28;20932;-80
2022/04/07 05:24:38;;;;;;;7.00;4.53;;;;;;;;;;4967585;28;20463;-79
2022/04/07 05:27:05;;;;;;;5.35;4.15;;;;;;;;;;4964209;28;20504;-79
2022/04/07 05:29:31;;;;;;;8.80;5.03;;;;;;;;;;4965278;28;20436;-80
2022/04/07 05:31:57;;;;;;;12.20;4.82;;;;;;;;;;4965635;28;20445;-79
2022/04/07 05:34:23;;;;;;;11.40;5.50;;;;;;;;;;4965763;28;20464;-80
2022/04/07 05:36:49;;;;;;;11.57;4.73;;;;;;;;;;4966500;28;20480;-80
2022/04/07 05:39:16;;;;;;;13.80;4.90;;;;;;;;;;4961733;28;20428;-80
2022/04/07 05:41:44;;;;;;;9.20;4.68;;;;;;;;;;4966639;28;20454;-79
2022/04/07 05:44:10;;;;;;;9.95;4.78;;;;;;;;;;4965169;28;20555;-79
2022/04/07 05:46:36;;;;;;;7.63;4.72;;;;;;;;;;4965447;28;20420;-80
2022/04/07 05:49:03;;;;;;;8.68;4.50;;;;;;;;;;4962698;28;20529;-81
2022/04/07 05:51:29;;;;;;;11.68;4.85;;;;;;;;;;4965553;28;20432;-80
2022/04/07 05:53:55;;;;;;;10.32;4.45;;;;;;;;;;4965405;28;20438;-80
2022/04/07 05:56:21;;;;;;;8.35;4.20;;;;;;;;;;4969354;28;20441;-80
2022/04/07 05:58:49;;;;;;;11.05;4.70;;;;;;;;;;4968803;28;20444;-80
2022/04/07 06:01:17;;;;;;;9.80;4.40;;;;;;;;;;4966864;28;20516;-80
2022/04/07 06:03:43;;;;;;;8.98;5.18;;;;;;;;;;4968288;28;20418;-79
2022/04/07 06:06:10;;;;;;;10.63;4.53;;;;;;;;;;4967799;28;20550;-80
2022/04/07 06:08:36;;;;;;;8.93;4.40;;;;;;;;;;4968576;28;20416;-80
2022/04/07 06:11:02;;;;;;;9.75;4.70;;;;;;;;;;4968303;28;20425;-80
2022/04/07 06:13:28;;;;;;;16.05;4.78;;;;;;;;;;4967882;28;20426;-80
2022/04/07 06:15:56;;;;;;;11.98;4.97;;;;;;;;;;4964909;28;20989;-80
2022/04/07 06:18:22;;;;;;;9.27;4.50;;;;;;;;;;4965183;28;20836;-80
2022/04/07 06:20:48;;;;;;;13.93;4.80;;;;;;;;;;4967732;28;20992;-80
2022/04/07 06:23:16;;;;;;;10.65;5.25;;;;;;;;;;4965116;28;20420;-79
2022/04/07 06:25:42;;;;;;;10.23;4.77;;;;;;;;;;4968714;28;21049;-80
2022/04/07 06:28:08;;;;;;;8.32;4.20;;;;;;;;;;4968076;28;20431;-79
2022/04/07 06:30:35;;;;;;;9.88;4.38;;;;;;;;;;4969197;28;20497;-79
2022/04/07 06:33:02;;;;;;;11.80;4.60;;;;;;;;;;4968134;28;20420;-81
2022/04/07 06:35:28;;;;;;;13.52;5.10;;;;;;;;;;4964979;28;20440;-80
2022/04/07 06:37:56;;;;;;;11.27;4.80;;;;;;;;;;4966783;28;20416;-80
2022/04/07 06:40:23;;;;;;;7.70;4.60;;;;;;;;;;4968322;28;20435;-80
2022/04/07 06:42:49;;;;;;;13.90;5.07;;;;;;;;;;4974297;28;20791;-80
2022/04/07 06:45:16;;;;;;;15.63;5.32;;;;;;;;;;4973726;28;20421;-80
2022/04/07 06:47:42;;;;;;;11.93;5.30;;;;;;;;;;4973332;28;20422;-80
2022/04/07 06:50:11;;;;;;;12.18;5.90;;;;;;;;;;4972358;28;20453;-81
2022/04/07 06:52:38;;;;;;;10.55;5.10;;;;;;;;;;4973702;28;20434;-80
2022/04/07 06:55:04;;;;;;;10.68;5.10;;;;;;;;;;4972525;28;20512;-81
2022/04/07 06:57:31;;;;;;;11.87;5.30;;;;;;;;;;4972586;28;20655;-80
2022/04/07 06:59:57;;;;;;;9.68;5.00;;;;;;;;;;4973067;28;20427;-80
2022/04/07 07:02:23;;;;;;;12.40;5.35;;;;;;;;;;4974104;28;20420;-81
2022/04/07 07:04:50;;;;;;;10.45;4.80;;;;;;;;;;4969654;28;20491;-80
2022/04/07 07:07:18;;;;;;;9.48;5.13;;;;;;;;;;4971776;28;20437;-80
2022/04/07 07:09:44;;;;;;;10.80;4.43;;;;;;;;;;4970326;28;20428;-78
2022/04/07 07:12:10;;;;;;;9.20;4.75;;;;;;;;;;4970412;28;20520;-80
2022/04/07 07:14:36;;;;;;;10.80;5.65;;;;;;;;;;4970254;28;20443;-79
2022/04/07 07:17:03;;;;;;;9.38;4.60;;;;;;;;;;4971252;28;21089;-80
2022/04/07 07:19:29;;;;;;;9.60;4.80;;;;;;;;;;4970311;28;20853;-80
2022/04/07 07:21:56;;;;;;;12.05;4.60;;;;;;;;;;4971730;28;20829;-80
2022/04/07 07:24:23;;;;;;;8.80;4.43;;;;;;;;;;4970508;28;20421;-79
2022/04/07 07:26:49;;;;;;;8.40;4.10;;;;;;;;;;4971930;28;20424;-79
2022/04/07 07:29:16;;;;;;;10.68;4.50;;;;;;;;;;4968027;28;20484;-79
2022/04/07 07:31:42;;;;;;;9.73;4.30;;;;;;;;;;4973186;28;20434;-79
2022/04/07 07:34:09;;;;;;;8.43;4.10;;;;;;;;;;4970767;28;20806;-79
2022/04/07 07:36:35;;;;;;;5.72;3.53;;;;;;;;;;4971947;28;20818;-78
2022/04/07 07:39:01;;;;;;;9.13;3.90;;;;;;;;;;4970977;28;20511;-80
2022/04/07 07:41:29;;;;;;;8.93;3.50;;;;;;;;;;4974770;28;20489;-80
2022/04/07 07:43:55;;;;;;;2.53;1.10;;;;;;;;;;4973106;28;20828;-80
2022/04/07 07:46:21;;;;;;;3.63;0.95;;;;;;;;;;4966035;28;20936;-80
2022/04/07 07:48:48;;;;;;;2.65;0.80;;;;;;;;;;4970464;28;20828;-80
2022/04/07 07:51:15;;;;;;;2.00;0.90;;;;;;;;;;4971616;28;20500;-80
2022/04/07 07:53:44;;;;;;;2.42;0.93;;;;;;;;;;4967634;28;20530;-79
2022/04/07 07:56:10;;;;;;;2.20;0.80;;;;;;;;;;4969910;28;20488;-80
2022/04/07 07:58:38;;;;;;;3.28;0.90;;;;;;;;;;4965681;28;20426;-80
2022/04/07 08:01:04;;;;;;;1.80;0.80;;;;;;;;;;4965278;28;20546;-80
2022/04/07 08:03:30;;;;;;;1.23;0.80;;;;;;;;;;4969455;28;21000;-80
2022/04/07 08:05:57;;;;;;;2.63;0.80;;;;;;;;;;4967136;28;20778;-80
2022/04/07 08:08:23;;;;;;;1.40;0.90;;;;;;;;;;4967290;28;20793;-80
2022/04/07 08:10:49;;;;;;;2.28;0.80;;;;;;;;;;4968033;28;20808;-80
2022/04/07 08:13:15;;;;;;;4.10;0.90;;;;;;;;;;4967505;28;20509;-80
2022/04/07 08:15:43;;;;;;;5.90;2.90;;;;;;;;;;4968180;28;20440;-80
2022/04/07 08:18:09;;;;;;;2.40;1.40;;;;;;;;;;4967870;28;20489;-78
2022/04/07 08:20:35;;;;;;;3.13;0.90;;;;;;;;;;4967895;28;20921;-79
2022/04/07 08:23:02;;;;;;;1.17;0.90;;;;;;;;;;4966458;28;20990;-80
2022/04/07 08:25:28;;;;;;;3.08;1.00;;;;;;;;;;4969789;28;20468;-79
2022/04/07 08:27:54;;;;;;;3.83;1.77;;;;;;;;;;4967219;28;20456;-79
2022/04/07 08:30:20;;;;;;;6.33;4.20;;;;;;;;;;4964238;28;20469;-80
2022/04/07 08:32:48;;;;;;;3.95;1.80;;;;;;;;;;4968514;28;20837;-79
2022/04/07 08:35:14;;;;;;;7.60;6.60;;;;;;;;;;4967598;28;20455;-79
2022/04/07 08:37:40;;;;;;;3.97;2.45;;;;;;;;;;4968666;28;20496;-79
2022/04/07 08:40:07;;;;;;;6.03;3.67;;;;;;;;;;4966557;28;20439;-79
2022/04/07 08:42:34;;;;;;;15.25;10.55;;;;;;;;;;4965995;28;20430;-78
2022/04/07 08:45:00;;;;;;;5.22;2.33;;;;;;;;;;4969913;28;20486;-79
2022/04/07 08:47:27;;;;;;;4.95;4.45;;;;;;;;;;4967145;28;20439;-79
2022/04/07 08:49:54;;;;;;;4.20;3.80;;;;;;;;;;4965867;28;20913;-78
2022/04/07 08:52:21;;;;;;;4.95;3.13;;;;;;;;;;4966801;28;20445;-79
2022/04/07 08:54:48;;;;;;;4.72;2.58;;;;;;;;;;4966617;28;20441;-78
2022/04/07 08:57:14;;;;;;;3.65;1.77;;;;;;;;;;4965586;28;20887;-80
2022/04/07 08:59:41;;;;;;;8.20;6.67;;;;;;;;;;4967434;28;20587;-79
2022/04/07 09:02:08;;;;;;;4.78;3.15;;;;;;;;;;4969755;28;20538;-80
2022/04/07 09:04:37;;;;;;;13.25;7.55;;;;;;;;;;4965809;28;20490;-79
2022/04/07 09:07:05;;;;;;;8.93;4.30;;;;;;;;;;4967595;28;20416;-80
2022/04/07 09:09:32;;;;;;;5.65;4.53;;;;;;;;;;4981673;28;20491;-79
2022/04/07 09:11:59;;;;;;;5.28;3.28;;;;;;;;;;4984643;28;20442;-79
2022/04/07 09:14:25;;;;;;;7.83;4.30;;;;;;;;;;4980849;28;20517;-79
2022/04/07 09:16:53;;;;;;;5.38;3.30;;;;;;;;;;4985646;28;20438;-79
2022/04/07 09:19:21;;;;;;;6.68;3.17;;;;;;;;;;4983752;28;20482;-80
2022/04/07 09:21:48;;;;;;;5.00;3.20;;;;;;;;;;4985393;28;20452;-80
2022/04/07 09:24:15;;;;;;;7.35;3.40;;;;;;;;;;4984210;28;20435;-79
2022/04/07 09:26:43;;;;;;;7.40;3.13;;;;;;;;;;4984624;28;20422;-80
2022/04/07 09:29:10;;;;;;;4.40;2.40;;;;;;;;;;4984174;28;20838;-79
2022/04/07 09:31:40;;;;;;;5.40;2.53;;;;;;;;;;4986420;28;20438;-80
2022/04/07 09:34:06;;;;;;;4.00;1.40;;;;;;;;;;4985495;28;20582;-79
2022/04/07 09:36:33;;;;;;;3.00;1.60;;;;;;;;;;4987589;28;21427;-79
2022/04/07 09:39:00;;;;;;;3.55;1.77;;;;;;;;;;4983535;28;20433;-78
2022/04/07 09:41:29;;;;;;;17.80;8.60;;;;;;;;;;4985995;28;21402;-78
2022/04/07 09:43:58;;;;;;;4.63;2.95;;;;;;;;;;4984070;28;20827;-79
2022/04/07 09:46:25;;;;;;;3.60;2.20;;;;;;;;;;4985194;28;20430;-79
2022/04/07 09:48:58;;;;;;;3.03;1.50;;;;;;;;;;4985503;28;21021;-78
2022/04/07 09:51:25;;;;;;;1.40;0.60;;;;;;;;;;4985359;28;20497;-79
2022/04/07 09:53:55;;;;;;;2.08;1.00;;;;;;;;;;4986360;28;20525;-79
2022/04/07 09:56:21;;;;;;;3.15;2.20;;;;;;;;;;4985441;28;20480;-78
2022/04/07 09:58:50;;;;;;;1.60;0.70;;;;;;;;;;4982920;28;20433;-79
2022/04/07 10:01:16;;;;;;;1.42;1.30;;;;;;;;;;4985175;28;20426;-78
2022/04/07 10:03:44;;;;;;;3.50;0.90;;;;;;;;;;4984791;28;20486;-78
2022/04/07 10:06:10;;;;;;;2.70;1.10;;;;;;;;;;4983389;28;21005;-79
2022/04/07 10:08:38;;;;;;;2.00;1.30;;;;;;;;;;4983339;28;20430;-78
2022/04/07 10:11:04;;;;;;;2.20;1.00;;;;;;;;;;4986853;28;20906;-78
2022/04/07 10:13:31;;;;;;;3.75;1.30;;;;;;;;;;4990527;28;20460;-80
2022/04/07 10:15:59;;;;;;;2.70;1.30;;;;;;;;;;4991374;28;20837;-79
2022/04/07 10:18:28;;;;;;;2.63;1.10;;;;;;;;;;4987625;28;20835;-79
2022/04/07 10:20:57;;;;;;;2.90;1.00;;;;;;;;;;4987036;28;20440;-79
2022/04/07 10:23:28;;;;;;;1.25;1.05;;;;;;;;;;4985330;28;20430;-79
2022/04/07 10:25:56;;;;;;;2.05;1.20;;;;;;;;;;4987922;28;20422;-79
2022/04/07 10:28:25;;;;;;;1.40;1.00;;;;;;;;;;4987109;28;20422;-78
2022/04/07 10:30:52;;;;;;;2.47;1.08;;;;;;;;;;4985335;28;20441;-80
2022/04/07 10:33:40;;;;;;;2.63;1.40;;;;;;;;;;4986773;28;20477;-79
2022/04/07 10:36:07;;;;;;;7.15;1.60;;;;;;;;;;5008237;23;20454;-80
2022/04/07 10:38:39;;;;;;;63.00;39.13;;;;;;;;;;4997997;28;20490;-80
2022/04/07 10:41:05;;;;;;;3.47;2.05;;;;;;;;;;4998724;28;20444;-81
2022/04/07 10:43:37;;;;;;;3.92;1.25;;;;;;;;;;4999468;28;20497;-81
2022/04/07 10:46:06;;;;;;;2.67;1.30;;;;;;;;;;5000479;28;20479;-81
2022/04/07 10:48:33;;;;;;;3.10;1.40;;;;;;;;;;4998829;28;20421;-81
2022/04/07 10:51:01;;;;;;;5.78;3.50;;;;;;;;;;4999135;28;20438;-82
2022/04/07 10:53:29;;;;;;;5.22;2.30;;;;;;;;;;5000477;28;20429;-82
2022/04/07 10:56:06;;;;;;;3.75;2.35;;;;;;;;;;4999047;28;20448;-80
2022/04/07 10:58:39;;;;;;;3.25;1.80;;;;;;;;;;4999185;28;20997;-80
2022/04/07 11:01:05;;;;;;;4.50;1.88;;;;;;;;;;5001957;28;20470;-80
2022/04/07 11:03:32;;;;;;;4.00;1.75;;;;;;;;;;5001131;28;20420;-80
2022/04/07 11:06:00;;;;;;;2.40;1.70;;;;;;;;;;5002151;28;20438;-79
2022/04/07 11:08:30;;;;;;;5.70;2.55;;;;;;;;;;5000013;28;20419;-81
2022/04/07 11:10:56;;;;;;;5.25;3.10;;;;;;;;;;5000389;28;20427;-81
2022/04/07 11:13:37;;;;;;;5.60;2.80;;;;;;;;;;5001255;28;20620;-81
2022/04/07 11:16:10;;;;;;;6.20;2.40;;;;;;;;;;5001482;28;21118;-81
2022/04/07 11:18:54;;;;;;;3.80;2.05;;;;;;;;;;5001273;28;20429;-80
2022/04/07 11:21:23;;;;;;;4.90;2.20;;;;;;;;;;5003186;28;20500;-82
2022/04/07 11:23:53;;;;;;;5.03;2.50;;;;;;;;;;5002969;28;20425;-82
2022/04/07 11:26:20;;;;;;;7.23;2.83;;;;;;;;;;5003000;28;20830;-81
2022/04/07 11:29:00;;;;;;;5.57;2.67;;;;;;;;;;5001573;28;20427;-83
2022/04/07 11:31:46;;;;;;;4.68;2.20;;;;;;;;;;5007232;28;20516;-81
2022/04/07 11:34:31;;;;;;;3.00;2.15;;;;;;;;;;5002756;28;20425;-81
2022/04/07 11:36:58;;;;;;;4.63;1.67;;;;;;;;;;5003343;28;20416;-81
2022/04/07 11:39:25;;;;;;;4.07;1.77;;;;;;;;;;5002336;28;20467;-80
2022/04/07 11:41:52;;;;;;;4.38;1.90;;;;;;;;;;5002913;28;20986;-81
2022/04/07 11:44:20;;;;;;;5.93;2.30;;;;;;;;;;5000433;28;20909;-81
2022/04/07 11:46:47;;;;;;;6.70;2.20;;;;;;;;;;5003470;28;20440;-81
2022/04/07 11:49:13;;;;;;;7.95;3.17;;;;;;;;;;5001982;28;20447;-80
2022/04/07 11:51:40;;;;;;;5.82;2.33;;;;;;;;;;5003207;28;20430;-81
2022/04/07 11:54:08;;;;;;;6.93;2.70;;;;;;;;;;5002805;28;20443;-81
2022/04/07 11:56:37;;;;;;;6.23;2.10;;;;;;;;;;5002351;28;20425;-82
2022/04/07 11:59:04;;;;;;;7.07;2.60;;;;;;;;;;5001329;28;20855;-80
2022/04/07 12:01:31;;;;;;;6.22;2.60;;;;;;;;;;5002869;28;20550;-81
2022/04/07 12:04:00;;;;;;;4.50;2.05;;;;;;;;;;5002994;28;20429;-81
2022/04/07 12:06:27;;;;;;;5.10;2.50;;;;;;;;;;5001314;28;20440;-80
2022/04/07 12:08:53;;;;;;;6.25;2.50;;;;;;;;;;5003661;28;20487;-82
2022/04/07 12:11:21;;;;;;;7.30;3.50;;;;;;;;;;5003577;28;20430;-81
2022/04/07 12:13:47;;;;;;;6.07;2.90;;;;;;;;;;5002834;28;20425;-81
2022/04/07 12:16:14;;;;;;;7.80;3.10;;;;;;;;;;5002768;28;20422;-81
2022/04/07 12:18:40;;;;;;;5.50;2.20;;;;;;;;;;4999730;28;20818;-81
2022/04/07 12:21:09;;;;;;;6.95;2.60;;;;;;;;;;5002330;28;20416;-82
2022/04/07 12:23:37;;;;;;;6.18;1.90;;;;;;;;;;5002179;28;20438;-81
2022/04/07 12:26:03;;;;;;;9.00;2.47;;;;;;;;;;5003408;28;20900;-81
2022/04/07 12:28:38;;;;;;;9.30;2.25;;;;;;;;;;5001142;28;20420;-82
2022/04/07 12:31:04;;;;;;;7.13;2.30;;;;;;;;;;5002873;28;20443;-82
2022/04/07 12:33:38;;;;;;;10.10;2.20;;;;;;;;;;5001053;28;20906;-84
2022/04/07 12:36:04;;;;;;;5.18;2.00;;;;;;;;;;5002802;28;20416;-82
2022/04/07 12:38:31;;;;;;;5.67;2.20;;;;;;;;;;5000892;28;20558;-81
2022/04/07 12:40:57;;;;;;;6.70;2.25;;;;;;;;;;5001557;28;20471;-82
2022/04/07 12:43:38;;;;;;;6.10;2.10;;;;;;;;;;5002594;28;20428;-83
2022/04/07 12:46:07;;;;;;;5.53;2.30;;;;;;;;;;5001525;28;20437;-80
2022/04/07 12:48:34;;;;;;;3.50;1.70;;;;;;;;;;5000530;28;20425;-81
2022/04/07 12:51:01;;;;;;;7.45;2.20;;;;;;;;;;5002704;28;20425;-80
2022/04/07 12:53:27;;;;;;;5.47;1.60;;;;;;;;;;5001839;28;20425;-82
2022/04/07 12:55:53;;;;;;;3.75;2.40;;;;;;;;;;5001550;28;20428;-81
2022/04/07 12:58:26;;;;;;;8.30;3.20;;;;;;;;;;4999398;28;21703;-81
2022/04/07 13:00:58;;;;;;;8.17;3.20;;;;;;;;;;5003042;28;20418;-81
2022/04/07 13:03:28;;;;;;;8.50;2.90;;;;;;;;;;5002764;28;20473;-80
2022/04/07 13:05:54;;;;;;;7.10;3.70;;;;;;;;;;5003118;28;20452;-81
2022/04/07 13:08:21;;;;;;;7.20;3.50;;;;;;;;;;5000672;28;20421;-80
2022/04/07 13:10:47;;;;;;;8.70;4.35;;;;;;;;;;5003398;28;20470;-80
2022/04/07 13:13:15;;;;;;;10.40;3.53;;;;;;;;;;5001664;28;20421;-81
2022/04/07 13:15:41;;;;;;;12.50;4.18;;;;;;;;;;5002058;28;20785;-81
2022/04/07 13:18:07;;;;;;;13.30;4.10;;;;;;;;;;5003895;28;20429;-81
2022/04/07 13:20:35;;;;;;;9.45;3.10;;;;;;;;;;5000797;28;20459;-81
2022/04/07 13:23:01;;;;;;;8.90;3.67;;;;;;;;;;5001222;28;20425;-81
2022/04/07 13:25:27;;;;;;;10.43;3.45;;;;;;;;;;5002978;28;20422;-82
2022/04/07 13:27:53;;;;;;;9.98;3.50;;;;;;;;;;5002186;28;20848;-83
2022/04/07 13:30:20;;;;;;;9.67;5.07;;;;;;;;;;5002097;28;20536;-81
2022/04/07 13:32:46;;;;;;;8.00;3.72;;;;;;;;;;5001918;28;20417;-80
2022/04/07 13:35:12;;;;;;;12.02;3.75;;;;;;;;;;5003555;28;20687;-81
2022/04/07 13:37:40;;;;;;;9.77;3.60;;;;;;;;;;5002566;28;20425;-81
2022/04/07 13:40:07;;;;;;;8.65;3.60;;;;;;;;;;5002070;28;20455;-81
2022/04/07 13:42:35;;;;;;;12.52;3.55;;;;;;;;;;5001876;28;20414;-82
2022/04/07 13:45:01;;;;;;;9.77;3.10;;;;;;;;;;5002982;28;20466;-81
2022/04/07 13:47:27;;;;;;;9.63;3.30;;;;;;;;;;5001696;28;20528;-81
2022/04/07 13:49:54;;;;;;;11.82;2.78;;;;;;;;;;5001899;28;20420;-82
2022/04/07 13:52:20;;;;;;;7.35;2.78;;;;;;;;;;5002896;28;20442;-81
2022/04/07 13:54:48;;;;;;;8.55;3.00;;;;;;;;;;5002012;28;20428;-82
2022/04/07 13:57:14;;;;;;;8.98;2.45;;;;;;;;;;5000883;28;20422;-83
2022/04/07 13:59:41;;;;;;;10.38;2.70;;;;;;;;;;5000584;28;20441;-83
2022/04/07 14:02:08;;;;;;;8.48;2.38;;;;;;;;;;5002186;28;20431;-82
2022/04/07 14:04:34;;;;;;;9.55;2.88;;;;;;;;;;5000868;28;20419;-82
2022/04/07 14:07:00;;;;;;;8.65;3.05;;;;;;;;;;5004442;28;20418;-82
2022/04/07 14:09:27;;;;;;;8.13;2.92;;;;;;;;;;5002007;28;20994;-82
2022/04/07 14:11:56;;;;;;;8.98;2.60;;;;;;;;;;5001300;28;20427;-83
2022/04/07 14:14:22;;;;;;;7.35;1.83;;;;;;;;;;5001200;28;20497;-81
2022/04/07 14:16:48;;;;;;;5.43;2.00;;;;;;;;;;5002307;28;20451;-82
2022/04/07 14:19:14;;;;;;;6.32;2.10;;;;;;;;;;5000208;28;20429;-83
2022/04/07 14:21:41;;;;;;;7.47;2.03;;;;;;;;;;5000890;28;20512;-82
2022/04/07 14:24:07;;;;;;;7.57;2.60;;;;;;;;;;5003020;28;20830;-82
2022/04/07 14:26:37;;;;;;;6.38;2.13;;;;;;;;;;5000610;28;20522;-82
2022/04/07 14:29:05;;;;;;;4.95;2.97;;;;;;;;;;4999876;28;20420;-82
2022/04/07 14:31:31;;;;;;;8.13;2.40;;;;;;;;;;5001446;28;20501;-82
2022/04/07 14:33:57;;;;;;;6.15;2.40;;;;;;;;;;5002047;28;20419;-81
2022/04/07 14:36:23;;;;;;;5.45;2.40;;;;;;;;;;4997194;28;20704;-79
2022/04/07 14:38:49;;;;;;;9.48;2.13;;;;;;;;;;4998724;28;20429;-81
2022/04/07 14:41:16;;;;;;;5.68;2.03;;;;;;;;;;4998046;28;20510;-82